Terminal Aerodrome Forecast
Issued by NWS

Home | Current Version | Previous Version | Text Only | Print | Product List | Glossary On
Versions: 1 2 3 4 5 6 7 8 9 10 11 12 13
000
FTUS43 KICT 020927 AAA
TAFCNU
TAF AMD
KCNU 020927Z 0209/0306 19006KT P6SM BKN250
     FM021500 20013KT P6SM SCT060
     FM022200 19008KT P6SM BKN060
     FM030200 18007KT P6SM BKN250=

USA.gov is the U.S. government's official web portal to all federal, state and local government web resources and services.